createdAt,value
2019-04-04T00:01:47.728Z,99471.53
2019-04-04T00:04:17.316Z,99481.67
2019-04-04T00:06:46.956Z,99489.19
2019-04-04T00:09:16.853Z,99482.17
2019-04-04T00:11:46.758Z,99495.95
2019-04-04T00:14:16.440Z,99501.75
2019-04-04T00:16:46.789Z,99480.83
2019-04-04T00:19:17.633Z,99487.64
2019-04-04T00:21:47.484Z,99494.41
2019-04-04T00:24:17.210Z,99486.75
2019-04-04T00:26:46.998Z,99476.15
2019-04-04T00:29:17.306Z,99473.08
2019-04-04T00:31:49.829Z,99479.89
2019-04-04T00:34:20.223Z,99478.64
2019-04-04T00:36:49.987Z,99486.09
2019-04-04T00:39:19.698Z,99486.22
2019-04-04T00:41:49.635Z,99479.39
2019-04-04T00:44:21.037Z,99489.45
2019-04-04T00:46:50.820Z,99491.73
2019-04-04T00:49:20.569Z,99489.58
2019-04-04T00:51:50.301Z,99483.06
2019-04-04T00:54:20.115Z,99496.27
2019-04-04T00:56:49.990Z,99490.63
2019-04-04T00:59:22.630Z,99496.61
2019-04-04T01:01:51.363Z,99496.86
2019-04-04T01:04:21.194Z,99503.27
2019-04-04T01:06:51.160Z,99503.98
2019-04-04T01:09:21.040Z,99516.16
2019-04-04T01:11:51.264Z,99514.59
2019-04-04T01:14:22.907Z,99519.27
2019-04-04T01:16:52.735Z,99516.77
2019-04-04T01:19:22.492Z,99513.74
2019-04-04T01:21:53.446Z,99509.53
2019-04-04T01:24:23.709Z,99518.92
2019-04-04T01:26:53.457Z,99521.78
2019-04-04T01:29:23.207Z,99513.31
2019-04-04T01:31:52.947Z,99523.75
2019-04-04T01:37:58.225Z,99521.17
2019-04-04T01:40:32.780Z,99531.28
2019-04-04T01:43:00.978Z,99530.95
2019-04-04T01:45:31.434Z,99536.77
2019-04-04T01:48:01.116Z,99529.64
2019-04-04T01:50:30.957Z,99540.14
2019-04-04T01:53:00.710Z,99539.45
2019-04-04T01:55:30.488Z,99530.87
2019-04-04T01:58:00.202Z,99533.13
2019-04-04T02:00:29.987Z,99518.48
2019-04-04T02:03:03.345Z,99506.36
2019-04-04T02:05:33.366Z,99497.66
2019-04-04T02:08:04.390Z,99501.31
2019-04-04T02:10:34.929Z,99496.53
2019-04-04T02:13:05.814Z,99494.00
2019-04-04T02:15:35.603Z,99495.95
2019-04-04T02:18:05.386Z,99485.97
2019-04-04T02:20:35.132Z,99485.09
2019-04-04T02:23:05.339Z,99484.58
2019-04-04T02:25:35.325Z,99478.78
2019-04-04T02:28:06.917Z,99484.29
2019-04-04T02:30:40.017Z,99481.30
2019-04-04T02:33:14.051Z,99480.87
2019-04-04T02:35:44.068Z,99468.71
2019-04-04T02:38:13.847Z,99465.13
2019-04-04T02:40:43.772Z,99452.50
2019-04-04T02:43:13.685Z,99456.05
2019-04-04T02:45:43.793Z,99472.02
2019-04-04T02:48:13.589Z,99478.48
2019-04-04T02:50:45.163Z,99470.52
2019-04-04T02:53:19.227Z,99466.36
2019-04-04T02:55:46.997Z,99468.41
2019-04-04T02:58:18.514Z,99475.92
2019-04-04T03:00:48.801Z,99486.94
2019-04-04T03:03:18.680Z,99488.10
2019-04-04T03:05:51.972Z,99486.20
2019-04-04T03:08:20.357Z,99492.88
2019-04-04T03:10:50.182Z,99485.66
2019-04-04T03:13:20.169Z,99493.39
2019-04-04T03:15:50.009Z,99490.07
2019-04-04T03:18:19.717Z,99485.07
2019-04-04T03:20:50.682Z,99494.48
2019-04-04T03:23:20.785Z,99490.07
2019-04-04T03:25:50.466Z,99491.56
2019-04-04T03:28:20.195Z,99491.88
2019-04-04T03:31:00.905Z,99510.71
2019-04-04T03:33:29.213Z,99517.84
2019-04-04T03:35:53.397Z,99508.45
2019-04-04T03:38:23.122Z,99500.81
2019-04-04T03:40:57.492Z,99503.14
2019-04-04T03:43:24.602Z,99505.17
2019-04-04T03:45:54.413Z,99502.50
2019-04-04T03:48:25.515Z,99501.95
2019-04-04T03:50:57.390Z,99492.50
2019-04-04T03:53:26.966Z,99485.57
2019-04-04T03:56:00.183Z,99486.64
2019-04-04T03:58:28.507Z,99479.70
2019-04-04T04:00:58.314Z,99486.12
2019-04-04T04:03:29.071Z,99485.57
2019-04-04T04:05:58.978Z,99479.22
2019-04-04T04:08:29.065Z,99479.45
2019-04-04T04:10:58.799Z,99473.61
2019-04-04T04:13:28.595Z,99456.30
2019-04-04T04:16:02.699Z,99448.49
2019-04-04T04:18:29.818Z,99443.10
2019-04-04T04:20:59.517Z,99444.16
2019-04-04T04:23:29.278Z,99451.89
2019-04-04T04:25:58.907Z,99448.83
2019-04-04T04:28:28.780Z,99452.19
2019-04-04T04:30:58.742Z,99465.35
2019-04-04T04:33:29.943Z,99467.73
2019-04-04T04:36:00.116Z,99453.25
2019-04-04T04:38:30.208Z,99448.58
2019-04-04T04:41:00.000Z,99446.61
2019-04-04T04:43:33.444Z,99437.78
2019-04-04T04:46:01.940Z,99439.16
2019-04-04T04:48:32.027Z,99439.71
2019-04-04T04:51:02.786Z,99449.16
2019-04-04T04:53:33.468Z,99454.00
2019-04-04T04:56:03.403Z,99463.23
2019-04-04T04:58:33.096Z,99466.61
2019-04-04T05:01:03.522Z,99472.84
2019-04-04T05:03:33.314Z,99460.72
2019-04-04T05:06:03.455Z,99465.66
2019-04-04T05:08:33.277Z,99474.48
2019-04-04T05:11:03.189Z,99471.80
2019-04-04T05:13:33.000Z,99468.28
2019-04-04T05:16:04.796Z,99471.53
2019-04-04T05:18:34.198Z,99474.05
2019-04-04T05:21:03.998Z,99462.61
2019-04-04T05:23:33.801Z,99443.53
2019-04-04T05:26:03.478Z,99435.35
2019-04-04T05:28:33.250Z,99445.12
2019-04-04T05:31:02.941Z,99472.26
2019-04-04T05:33:32.751Z,99481.61
2019-04-04T05:36:04.851Z,99500.11
2019-04-04T05:38:33.898Z,99501.53
2019-04-04T05:41:04.045Z,99497.37
2019-04-04T05:43:35.279Z,99496.30
2019-04-04T05:46:06.257Z,99504.05
2019-04-04T05:48:35.949Z,99508.33
2019-04-04T05:51:05.801Z,99518.45
2019-04-04T05:53:36.056Z,99516.33
2019-04-04T05:56:06.639Z,99499.02
2019-04-04T05:58:36.487Z,99490.08
2019-04-04T06:01:07.239Z,99487.14
2019-04-04T06:03:36.969Z,99488.94
2019-04-04T06:06:06.852Z,99485.33
2019-04-04T06:08:38.794Z,99478.62
2019-04-04T06:11:08.162Z,99492.52
2019-04-04T06:13:38.026Z,99499.45
2019-04-04T06:16:07.733Z,99499.93
2019-04-04T06:18:37.592Z,99492.89
2019-04-04T06:21:07.366Z,99492.63
2019-04-04T06:23:37.210Z,99482.60
2019-04-04T06:26:07.718Z,99487.39
2019-04-04T06:28:37.485Z,99487.17
2019-04-04T06:31:07.232Z,99494.62
2019-04-04T06:33:36.920Z,99492.09
2019-04-04T06:36:06.840Z,99487.96
2019-04-04T06:38:36.562Z,99494.78
2019-04-04T06:41:06.486Z,99501.69
2019-04-04T06:43:37.197Z,99509.08
2019-04-04T06:46:06.954Z,99509.77
2019-04-04T06:48:38.644Z,99509.55
2019-04-04T06:51:08.593Z,99504.38
2019-04-04T06:53:38.299Z,99497.36
2019-04-04T06:56:08.006Z,99484.44
2019-04-04T06:58:40.036Z,99484.72
2019-04-04T07:01:11.100Z,99499.04
2019-04-04T07:03:40.902Z,99491.59
2019-04-04T07:06:10.906Z,99491.99
2019-04-04T07:08:41.084Z,99483.15
2019-04-04T07:11:20.937Z,99486.34
2019-04-04T07:13:43.027Z,99490.50
2019-04-04T07:16:12.895Z,99501.66
2019-04-04T07:18:43.000Z,99505.23
2019-04-04T07:21:13.558Z,99506.33
2019-04-04T07:23:43.437Z,99501.31
2019-04-04T07:26:14.912Z,99501.40
2019-04-04T07:28:44.711Z,99500.25
2019-04-04T07:31:15.973Z,99496.05
2019-04-04T07:33:45.970Z,99494.42
2019-04-04T07:36:15.726Z,99500.39
2019-04-04T07:38:45.549Z,99504.31
2019-04-04T07:41:15.353Z,99494.95
2019-04-04T07:43:45.030Z,99494.86
2019-04-04T07:46:16.870Z,99500.06
2019-04-04T07:48:46.476Z,99489.28
2019-04-04T07:51:16.204Z,99493.42
2019-04-04T07:53:46.021Z,99493.67
2019-04-04T07:56:15.819Z,99502.22
2019-04-04T07:58:45.488Z,99508.84
2019-04-04T08:01:15.164Z,99504.41
2019-04-04T08:03:44.869Z,99501.81
2019-04-04T08:06:14.706Z,99497.87
2019-04-04T08:08:44.482Z,99497.15
2019-04-04T08:11:14.537Z,99494.42
2019-04-04T08:13:44.306Z,99494.12
2019-04-04T08:16:14.125Z,99498.95
2019-04-04T08:18:43.888Z,99496.87
2019-04-04T08:21:13.640Z,99496.76
2019-04-04T08:23:43.375Z,99496.59
2019-04-04T08:26:13.090Z,99500.76
2019-04-04T08:28:42.820Z,99508.16
2019-04-04T08:31:12.544Z,99505.30
2019-04-04T08:33:42.284Z,99493.67
2019-04-04T08:36:12.108Z,99484.19
2019-04-04T08:38:41.937Z,99495.56
2019-04-04T08:41:12.036Z,99506.63
2019-04-04T08:43:41.795Z,99518.95
2019-04-04T08:46:11.504Z,99521.11
2019-04-04T08:48:41.263Z,99511.70
2019-04-04T08:51:11.072Z,99505.94
2019-04-04T08:53:40.837Z,99504.62
2019-04-04T08:56:10.662Z,99502.27
2019-04-04T08:58:40.354Z,99504.72
2019-04-04T09:01:10.109Z,99499.79
2019-04-04T09:03:39.780Z,99495.00
2019-04-04T09:06:09.488Z,99503.04
2019-04-04T09:08:39.270Z,99507.83
2019-04-04T09:11:10.199Z,99505.02
2019-04-04T09:13:39.952Z,99498.28
2019-04-04T09:16:09.896Z,99493.22
2019-04-04T09:18:40.700Z,99493.72
2019-04-04T09:21:10.454Z,99493.52
2019-04-04T09:23:40.168Z,99498.73
2019-04-04T09:26:09.969Z,99488.05
2019-04-04T09:28:40.118Z,99479.33
2019-04-04T09:31:09.981Z,99487.44
2019-04-04T09:33:39.686Z,99492.85
2019-04-04T09:36:09.793Z,99500.65
2019-04-04T09:38:39.559Z,99505.97
2019-04-04T09:41:09.528Z,99506.87
2019-04-04T09:43:39.413Z,99509.91
2019-04-04T09:46:09.396Z,99511.05
2019-04-04T09:48:39.162Z,99503.59
2019-04-04T09:51:09.052Z,99506.56
2019-04-04T09:53:52.414Z,99503.19
2019-04-04T09:56:11.383Z,99512.20
2019-04-04T09:58:41.077Z,99518.02
2019-04-04T10:01:10.976Z,99513.15
2019-04-04T10:03:40.893Z,99511.70
2019-04-04T10:06:10.664Z,99508.33
2019-04-04T10:08:40.616Z,99515.94
2019-04-04T10:11:10.384Z,99521.55
2019-04-04T10:13:40.053Z,99526.08
2019-04-04T10:16:09.820Z,99533.28
2019-04-04T10:18:39.525Z,99536.91
2019-04-04T10:21:12.266Z,99539.96
2019-04-04T10:23:40.954Z,99529.80
2019-04-04T10:26:11.080Z,99529.25
2019-04-04T10:28:40.976Z,99522.38
2019-04-04T10:31:10.792Z,99518.09
2019-04-04T10:33:42.204Z,99519.59
2019-04-04T10:36:12.217Z,99520.02
2019-04-04T10:38:41.996Z,99518.19
2019-04-04T10:41:12.043Z,99506.96
2019-04-04T10:43:41.976Z,99510.02
2019-04-04T10:46:11.765Z,99508.21
2019-04-04T10:48:41.540Z,99513.11
2019-04-04T10:51:11.477Z,99506.09
2019-04-04T10:53:41.234Z,99505.37
2019-04-04T10:56:10.990Z,99495.42
2019-04-04T10:58:40.684Z,99496.94
2019-04-04T11:01:10.487Z,99501.77
2019-04-04T11:03:40.186Z,99497.96
2019-04-04T11:06:09.915Z,99490.48
2019-04-04T11:08:39.613Z,99493.02
2019-04-04T11:11:09.521Z,99496.02
2019-04-04T11:13:39.292Z,99488.30
2019-04-04T11:16:09.004Z,99486.53
2019-04-04T11:18:38.689Z,99492.30
2019-04-04T11:21:08.513Z,99493.50
2019-04-04T11:23:38.285Z,99493.30
2019-04-04T11:26:08.168Z,99500.72
2019-04-04T11:28:37.849Z,99500.13
2019-04-04T11:31:07.573Z,99495.47
2019-04-04T11:33:37.274Z,99495.04
2019-04-04T11:36:07.233Z,99492.57
2019-04-04T11:38:36.954Z,99494.61
2019-04-04T11:41:06.730Z,99483.84
2019-04-04T11:43:36.438Z,99495.31
2019-04-04T11:46:06.221Z,99496.36
2019-04-04T11:48:36.063Z,99496.03
2019-04-04T11:51:06.266Z,99499.15
2019-04-04T11:53:36.073Z,99485.95
2019-04-04T11:56:06.064Z,99484.20
2019-04-04T11:58:36.367Z,99483.17
2019-04-04T12:01:08.304Z,99491.97
2019-04-04T12:03:38.015Z,99488.16
2019-04-04T12:06:08.685Z,99478.39
2019-04-04T12:08:38.366Z,99482.77
2019-04-04T12:11:08.410Z,99468.81
2019-04-04T12:13:38.162Z,99477.80
2019-04-04T12:16:08.069Z,99466.92
2019-04-04T12:18:37.878Z,99470.40
2019-04-04T12:21:07.579Z,99474.91
2019-04-04T12:23:37.293Z,99475.64
2019-04-04T12:26:07.004Z,99471.11
2019-04-04T12:28:36.707Z,99468.91
2019-04-04T12:31:06.507Z,99476.32
2019-04-04T12:33:36.252Z,99468.69
2019-04-04T12:36:06.789Z,99464.60
2019-04-04T12:38:36.471Z,99459.09
2019-04-04T12:41:06.217Z,99459.09
2019-04-04T12:43:36.009Z,99466.54
2019-04-04T12:46:06.002Z,99466.02
2019-04-04T12:48:35.680Z,99472.48
2019-04-04T12:51:05.748Z,99472.48
2019-04-04T12:53:35.536Z,99479.22
2019-04-04T12:56:05.373Z,99478.72
2019-04-04T12:58:35.073Z,99469.36
2019-04-04T13:01:04.838Z,99476.87
2019-04-04T13:03:34.533Z,99482.06
2019-04-04T13:06:04.302Z,99484.27
2019-04-04T13:08:34.107Z,99478.36
2019-04-04T13:11:06.384Z,99466.50
2019-04-04T13:13:38.207Z,99465.66
2019-04-04T13:16:08.283Z,99477.66
2019-04-04T13:18:38.023Z,99482.08
2019-04-04T13:21:08.918Z,99480.59
2019-04-04T13:23:38.753Z,99478.03
2019-04-04T13:26:08.514Z,99472.99
2019-04-04T13:28:38.284Z,99471.78
2019-04-04T13:31:07.997Z,99467.00
2019-04-04T13:33:37.758Z,99472.61
2019-04-04T13:36:07.534Z,99470.28
2019-04-04T13:38:37.418Z,99456.91
2019-04-04T13:41:07.154Z,99459.67
2019-04-04T13:43:36.880Z,99454.66
2019-04-04T13:46:06.700Z,99448.47
2019-04-04T13:48:37.515Z,99447.65
2019-04-04T13:51:07.687Z,99444.50
2019-04-04T13:53:37.430Z,99440.45
2019-04-04T13:56:07.369Z,99436.39
2019-04-04T13:58:37.152Z,99440.00
2019-04-04T14:01:08.024Z,99440.83
2019-04-04T14:03:37.780Z,99438.03
2019-04-04T14:06:07.464Z,99437.49
2019-04-04T14:08:39.400Z,99451.87
2019-04-04T14:11:08.593Z,99446.00
2019-04-04T14:13:38.284Z,99451.08
2019-04-04T14:16:08.051Z,99448.95
2019-04-04T14:18:39.933Z,99453.05
2019-04-04T14:21:09.364Z,99456.47
2019-04-04T14:23:39.131Z,99453.12
2019-04-04T14:26:08.906Z,99455.16
2019-04-04T14:28:38.637Z,99464.26
2019-04-04T14:31:08.321Z,99459.63
2019-04-04T14:33:38.138Z,99462.93
2019-04-04T14:36:07.895Z,99447.47
2019-04-04T14:38:37.718Z,99442.21
2019-04-04T14:41:11.403Z,99447.34
2019-04-04T14:43:40.125Z,99451.18
2019-04-04T14:46:10.084Z,99450.70
2019-04-04T14:48:42.147Z,99456.75
2019-04-04T14:51:11.564Z,99450.25
2019-04-04T14:53:41.346Z,99443.17
2019-04-04T14:56:11.107Z,99443.17
2019-04-04T14:58:40.823Z,99437.02
2019-04-04T15:01:11.758Z,99426.97
2019-04-04T15:03:42.326Z,99436.99
2019-04-04T15:06:12.663Z,99434.87
2019-04-04T15:08:42.428Z,99427.09
2019-04-04T15:11:23.499Z,99436.50
2019-04-04T15:13:43.612Z,99433.38
2019-04-04T15:16:18.361Z,99430.23
2019-04-04T15:18:48.107Z,99438.39
2019-04-04T15:21:17.874Z,99448.45
2019-04-04T15:23:47.782Z,99436.99
2019-04-04T15:26:17.558Z,99441.09
2019-04-04T15:28:47.262Z,99446.62
2019-04-04T15:31:17.523Z,99437.82
2019-04-04T15:33:50.256Z,99438.45
2019-04-04T15:36:18.791Z,99436.63
2019-04-04T15:38:48.491Z,99429.86
2019-04-04T15:41:18.218Z,99430.44
2019-04-04T15:43:48.061Z,99435.48
2019-04-04T15:46:17.874Z,99431.95
2019-04-04T15:48:47.596Z,99440.40
2019-04-04T15:51:17.312Z,99433.66
2019-04-04T15:53:47.064Z,99431.28
2019-04-04T15:56:16.793Z,99447.04
2019-04-04T15:58:46.522Z,99446.34
2019-04-04T16:01:16.282Z,99446.34
2019-04-04T16:03:46.009Z,99447.52
2019-04-04T16:06:15.770Z,99442.60
2019-04-04T16:08:45.515Z,99451.63
2019-04-04T16:11:15.182Z,99450.22
2019-04-04T16:13:44.940Z,99456.02
2019-04-04T16:16:14.622Z,99455.80
2019-04-04T16:18:44.433Z,99459.69
2019-04-04T16:21:14.112Z,99446.84
2019-04-04T16:23:44.298Z,99443.69
2019-04-04T16:26:13.954Z,99452.43
2019-04-04T16:28:43.811Z,99448.46
2019-04-04T16:31:13.482Z,99446.83
2019-04-04T16:33:43.158Z,99446.03
2019-04-04T16:36:12.836Z,99450.33
2019-04-04T16:38:42.531Z,99445.09
2019-04-04T16:41:14.519Z,99445.42
2019-04-04T16:43:43.912Z,99446.72
2019-04-04T16:46:14.739Z,99453.13
2019-04-04T16:48:44.615Z,99461.30
2019-04-04T16:51:14.752Z,99458.41
2019-04-04T16:53:44.567Z,99460.83
2019-04-04T16:56:14.264Z,99469.80
2019-04-04T16:58:44.421Z,99471.88
2019-04-04T17:01:15.260Z,99467.67
2019-04-04T17:03:45.080Z,99469.89
2019-04-04T17:06:15.144Z,99479.44
2019-04-04T17:08:44.885Z,99493.47
2019-04-04T17:11:14.681Z,99505.39
2019-04-04T17:13:44.377Z,99510.91
2019-04-04T17:16:14.220Z,99506.02
2019-04-04T17:18:43.987Z,99509.91
2019-04-04T17:21:14.661Z,99510.16
2019-04-04T17:23:45.461Z,99513.94
2019-04-04T17:26:15.163Z,99513.25
2019-04-04T17:28:45.127Z,99522.02
2019-04-04T17:31:15.723Z,99531.31
2019-04-04T17:33:47.000Z,99532.05
2019-04-04T17:36:20.297Z,99533.11
2019-04-04T17:38:48.405Z,99535.70
2019-04-04T17:41:18.212Z,99543.37
2019-04-04T17:43:48.331Z,99554.58
2019-04-04T17:46:18.959Z,99567.39
2019-04-04T17:48:48.822Z,99564.70
2019-04-04T17:51:19.121Z,99562.15
2019-04-04T17:53:52.060Z,99569.95
2019-04-04T17:56:21.214Z,99567.50
2019-04-04T17:58:51.027Z,99569.72
2019-04-04T18:01:20.967Z,99566.67
2019-04-04T18:03:50.727Z,99567.59
2019-04-04T18:06:20.643Z,99576.73
2019-04-04T18:08:51.104Z,99567.97
2019-04-04T18:11:20.864Z,99562.27
2019-04-04T18:13:51.834Z,99566.37
2019-04-04T18:16:21.908Z,99576.27
2019-04-04T18:18:51.912Z,99575.59
2019-04-04T18:21:22.220Z,99569.43
2019-04-04T18:23:52.635Z,99578.00
2019-04-04T18:26:22.913Z,99591.27
2019-04-04T18:28:52.608Z,99596.09
2019-04-04T18:31:22.683Z,99596.16
2019-04-04T18:33:52.717Z,99596.89
2019-04-04T18:36:23.200Z,99611.52
2019-04-04T18:38:53.108Z,99605.78
2019-04-04T18:41:23.282Z,99609.12
2019-04-04T18:43:53.267Z,99613.36
2019-04-04T18:46:23.233Z,99621.55
2019-04-04T18:48:53.153Z,99620.34
2019-04-04T18:51:23.570Z,99622.77
2019-04-04T18:53:54.044Z,99616.70
2019-04-04T18:56:24.304Z,99620.13
2019-04-04T18:58:54.288Z,99621.09
2019-04-04T19:01:24.456Z,99613.13
2019-04-04T19:03:54.299Z,99620.98
2019-04-04T19:06:25.996Z,99620.66
2019-04-04T19:08:55.755Z,99623.88
2019-04-04T19:11:25.862Z,99624.98
2019-04-04T19:13:55.724Z,99628.39
2019-04-04T19:16:25.931Z,99626.80
2019-04-04T19:18:55.944Z,99626.03
2019-04-04T19:21:26.082Z,99635.31
2019-04-04T19:23:56.088Z,99630.34
2019-04-04T19:26:26.138Z,99630.89
2019-04-04T19:28:56.042Z,99630.20
2019-04-04T19:31:26.098Z,99626.08
2019-04-04T19:33:57.122Z,99629.20
2019-04-04T19:36:26.988Z,99628.36
2019-04-04T19:38:57.833Z,99628.44
2019-04-04T19:41:27.725Z,99631.60
2019-04-04T19:44:03.463Z,99632.09
2019-04-04T19:46:45.658Z,99631.45
2019-04-04T19:49:16.816Z,99639.59
2019-04-04T20:01:35.665Z,99643.19
2019-04-04T20:04:06.167Z,99643.80
2019-04-04T20:06:35.933Z,99647.83
2019-04-04T20:09:07.333Z,99649.33
2019-04-04T20:11:37.403Z,99656.94
2019-04-04T20:14:07.488Z,99659.46
2019-04-04T20:16:37.848Z,99656.72
2019-04-04T20:19:07.801Z,99650.36
2019-04-04T20:21:37.470Z,99649.08
2019-04-04T20:24:07.340Z,99651.96
2019-04-04T20:26:37.681Z,99640.38
2019-04-04T20:29:07.432Z,99646.62
2019-04-04T20:31:37.960Z,99644.20
2019-04-04T20:34:07.889Z,99648.16
2019-04-04T20:36:38.190Z,99649.28
2019-04-04T20:39:09.321Z,99646.87
2019-04-04T20:41:39.272Z,99644.38
2019-04-04T20:44:09.054Z,99651.06
2019-04-04T20:46:39.056Z,99638.94
2019-04-04T20:49:08.791Z,99645.00
2019-04-04T20:51:38.712Z,99650.30
2019-04-04T20:54:08.489Z,99642.03
2019-04-04T20:56:38.393Z,99651.48
2019-04-04T20:59:08.245Z,99651.48
2019-04-04T21:01:39.019Z,99654.81
2019-04-04T21:04:08.777Z,99654.30
2019-04-04T21:06:38.586Z,99653.79
2019-04-04T21:09:08.999Z,99656.88
2019-04-04T21:11:38.932Z,99658.56
2019-04-04T21:14:08.975Z,99654.41
2019-04-04T21:16:39.022Z,99665.77
2019-04-04T21:19:09.836Z,99665.77
2019-04-04T21:21:39.621Z,99663.21
2019-04-04T21:24:09.433Z,99666.02
2019-04-04T21:26:39.149Z,99668.80
2019-04-04T21:29:08.885Z,99670.02
2019-04-04T21:31:38.771Z,99679.83
2019-04-04T21:34:08.654Z,99680.77
2019-04-04T21:36:38.396Z,99684.09
2019-04-04T21:39:08.891Z,99682.77
2019-04-04T21:41:38.890Z,99686.44
2019-04-04T21:44:09.464Z,99685.41
2019-04-04T21:46:39.411Z,99684.89
2019-04-04T21:49:09.318Z,99696.87
2019-04-04T21:51:39.134Z,99709.69
2019-04-04T21:54:09.024Z,99717.66
2019-04-04T21:56:39.134Z,99710.95
2019-04-04T21:59:09.064Z,99714.55
2019-04-04T22:01:39.334Z,99710.19
2019-04-04T22:04:09.247Z,99720.49
2019-04-04T22:06:39.001Z,99721.09
2019-04-04T22:09:11.693Z,99723.34
2019-04-04T22:11:41.771Z,99712.52
2019-04-04T22:14:21.149Z,99715.27
2019-04-04T22:16:43.246Z,99728.00
2019-04-04T22:19:13.185Z,99718.06
2019-04-04T22:21:43.203Z,99725.33
2019-04-04T22:24:12.943Z,99723.16
2019-04-04T22:26:42.720Z,99727.33
2019-04-04T22:29:12.693Z,99741.84
2019-04-04T22:31:42.647Z,99734.66
2019-04-04T22:34:12.565Z,99740.26
2019-04-04T22:36:42.431Z,99740.26
2019-04-04T22:39:12.332Z,99737.48
2019-04-04T22:41:42.304Z,99743.55
2019-04-04T22:44:12.181Z,99747.70
2019-04-04T22:46:42.248Z,99755.83
2019-04-04T22:49:12.237Z,99768.62
2019-04-04T22:51:43.016Z,99763.41
2019-04-04T22:54:12.906Z,99761.83
2019-04-04T22:56:42.725Z,99756.06
2019-04-04T22:59:12.714Z,99764.67
2019-04-04T23:01:42.607Z,99775.75
2019-04-04T23:04:12.436Z,99785.47
2019-04-04T23:06:42.340Z,99786.05
2019-04-04T23:09:12.141Z,99781.64
2019-04-04T23:11:41.927Z,99786.37
2019-04-04T23:14:11.761Z,99781.96
2019-04-04T23:16:41.823Z,99769.50
2019-04-04T23:19:11.548Z,99766.79
2019-04-04T23:21:41.603Z,99756.61
2019-04-04T23:24:11.490Z,99764.34
2019-04-04T23:26:41.701Z,99764.81
2019-04-04T23:29:11.439Z,99763.58
2019-04-04T23:31:41.459Z,99767.56
2019-04-04T23:34:11.268Z,99766.00
2019-04-04T23:36:41.152Z,99769.14
2019-04-04T23:39:10.981Z,99783.12
2019-04-04T23:41:40.702Z,99798.03
2019-04-04T23:44:10.505Z,99806.92
2019-04-04T23:46:40.334Z,99805.75
2019-04-04T23:49:10.059Z,99794.03
2019-04-04T23:51:41.011Z,99793.35
2019-04-04T23:54:10.883Z,99788.50
2019-04-04T23:58:53.561Z,99783.66
